createdAt,value
2023-03-20T00:02:25.646Z,78.82
2023-03-20T00:04:54.125Z,78.78
2023-03-20T00:07:22.518Z,78.81
2023-03-20T00:09:51.017Z,78.81
2023-03-20T00:12:26.686Z,78.83
2023-03-20T00:14:55.222Z,78.72
2023-03-20T00:17:23.603Z,78.76
2023-03-20T00:19:51.968Z,78.79
2023-03-20T00:22:20.414Z,78.77
2023-03-20T00:24:48.794Z,78.68
2023-03-20T00:27:18.132Z,78.67
2023-03-20T00:29:46.556Z,78.72
2023-03-20T00:32:15.619Z,78.69
2023-03-20T00:34:44.016Z,78.54
2023-03-20T00:37:12.703Z,78.64
2023-03-20T00:39:41.864Z,78.65
2023-03-20T00:42:22.439Z,78.60
2023-03-20T00:44:55.923Z,78.57
2023-03-20T00:47:25.652Z,78.42
2023-03-20T00:49:56.139Z,78.41
2023-03-20T00:52:25.259Z,78.33
2023-03-20T00:54:53.700Z,78.20
2023-03-20T00:57:34.163Z,78.18
2023-03-20T01:00:38.095Z,78.13
2023-03-20T01:03:23.180Z,78.07
2023-03-20T01:05:52.346Z,77.95
2023-03-20T01:08:24.495Z,78.05
2023-03-20T01:10:55.761Z,77.97
2023-03-20T01:13:30.615Z,78.11
2023-03-20T01:15:59.553Z,78.11
2023-03-20T01:18:27.975Z,77.94
2023-03-20T01:20:56.380Z,77.95
2023-03-20T01:23:26.667Z,77.90
2023-03-20T01:25:55.056Z,77.85
2023-03-20T01:28:24.454Z,77.87
2023-03-20T01:30:52.866Z,77.85
2023-03-20T01:33:26.701Z,78.00
2023-03-20T01:35:55.127Z,77.99
2023-03-20T01:38:27.208Z,78.18
2023-03-20T01:41:16.625Z,78.44
2023-03-20T01:43:46.122Z,78.60
2023-03-20T01:46:29.939Z,78.76
2023-03-20T01:49:20.032Z,78.90
2023-03-20T01:51:50.862Z,79.13
2023-03-20T01:54:27.373Z,79.30
2023-03-20T01:57:19.939Z,79.55
2023-03-20T02:00:16.846Z,79.87
2023-03-20T02:02:47.978Z,79.99
2023-03-20T02:05:21.970Z,80.25
2023-03-20T02:08:10.611Z,80.49
2023-03-20T02:10:40.956Z,80.83
2023-03-20T02:13:11.044Z,81.26
2023-03-20T02:16:04.866Z,82.03
2023-03-20T02:18:34.546Z,82.86
2023-03-20T02:21:42.321Z,83.29
2023-03-20T02:24:36.695Z,83.74
2023-03-20T02:27:30.382Z,84.13
2023-03-20T02:30:40.221Z,84.53
2023-03-20T02:33:29.952Z,85.10
2023-03-20T02:36:46.709Z,85.41
2023-03-20T02:39:43.299Z,85.67
2023-03-20T02:42:49.148Z,86.07
2023-03-20T02:45:29.546Z,86.23
2023-03-20T02:48:28.432Z,86.32
2023-03-20T02:51:14.973Z,86.50
2023-03-20T02:53:59.175Z,86.67
2023-03-20T02:56:49.336Z,87.03
2023-03-20T02:59:49.856Z,87.48
2023-03-20T03:02:37.999Z,87.82
2023-03-20T03:05:16.425Z,88.23
2023-03-20T03:07:50.422Z,88.39
2023-03-20T03:10:55.622Z,88.74
2023-03-20T03:13:29.829Z,89.05
2023-03-20T03:16:06.860Z,89.15
2023-03-20T03:18:37.760Z,89.39
2023-03-20T03:21:08.836Z,89.54
2023-03-20T03:23:47.926Z,89.66
2023-03-20T03:26:31.546Z,89.85
2023-03-20T03:29:17.398Z,90.00
2023-03-20T03:31:46.730Z,90.27
2023-03-20T03:34:19.367Z,90.44
2023-03-20T03:37:21.951Z,90.50
2023-03-20T03:39:56.440Z,90.80
2023-03-20T03:42:53.597Z,90.92
2023-03-20T03:45:33.964Z,90.99
2023-03-20T03:48:23.210Z,91.07
2023-03-20T03:51:00.536Z,91.33
2023-03-20T03:53:38.377Z,91.27
2023-03-20T03:56:12.379Z,91.39
2023-03-20T03:58:48.045Z,91.46
2023-03-20T04:01:19.022Z,91.54
2023-03-20T04:03:53.280Z,91.78
2023-03-20T04:06:22.811Z,92.05
2023-03-20T04:08:51.905Z,92.00
2023-03-20T04:11:30.344Z,92.05
2023-03-20T04:13:58.736Z,92.05
2023-03-20T04:16:27.232Z,92.11
2023-03-20T04:18:56.590Z,92.31
2023-03-20T04:21:25.004Z,92.34
2023-03-20T04:23:53.343Z,92.50
2023-03-20T04:26:21.955Z,92.52
2023-03-20T04:28:51.725Z,92.34
2023-03-20T04:31:20.485Z,92.41
2023-03-20T04:33:48.916Z,92.47
2023-03-20T04:36:17.258Z,92.55
2023-03-20T04:38:45.721Z,92.67
2023-03-20T04:41:14.303Z,92.71
2023-03-20T04:43:42.691Z,92.79
2023-03-20T04:46:11.137Z,92.82
2023-03-20T04:48:39.538Z,92.88
2023-03-20T04:51:08.010Z,92.90
2023-03-20T04:53:36.785Z,93.04
2023-03-20T04:56:05.785Z,92.90
2023-03-20T04:58:35.979Z,92.94
2023-03-20T05:01:04.519Z,93.02
2023-03-20T05:03:33.452Z,93.05
2023-03-20T05:06:01.791Z,93.16
2023-03-20T05:08:30.197Z,93.12
2023-03-20T05:10:58.514Z,93.34
2023-03-20T05:13:27.055Z,93.28
2023-03-20T05:15:55.411Z,93.16
2023-03-20T05:18:23.752Z,92.91
2023-03-20T05:20:52.133Z,93.04
2023-03-20T05:23:20.694Z,93.28
2023-03-20T05:25:49.036Z,93.68
2023-03-20T05:28:17.372Z,94.00
2023-03-20T05:30:46.036Z,94.13
2023-03-20T05:33:14.463Z,94.22
2023-03-20T05:35:42.845Z,94.28
2023-03-20T05:38:11.393Z,94.35
2023-03-20T05:40:41.925Z,94.48
2023-03-20T05:43:10.212Z,94.76
2023-03-20T05:45:38.629Z,94.84
2023-03-20T05:48:07.033Z,94.88
2023-03-20T05:50:35.398Z,95.06
2023-03-20T05:53:03.832Z,95.15
2023-03-20T05:55:33.287Z,95.36
2023-03-20T05:58:01.984Z,95.11
2023-03-20T06:00:30.311Z,95.32
2023-03-20T06:02:58.674Z,95.57
2023-03-20T06:05:27.142Z,95.49
2023-03-20T06:07:55.539Z,95.56
2023-03-20T06:10:23.903Z,95.71
2023-03-20T06:12:52.260Z,95.75
2023-03-20T06:15:20.588Z,96.04
2023-03-20T06:17:48.946Z,96.08
2023-03-20T06:20:17.920Z,96.08
2023-03-20T06:22:46.930Z,96.25
2023-03-20T06:25:15.581Z,96.33
2023-03-20T06:27:46.060Z,96.37
2023-03-20T06:30:16.833Z,96.50
2023-03-20T06:42:36.328Z,96.77
2023-03-20T06:45:06.713Z,96.91
2023-03-20T06:47:35.512Z,96.96
2023-03-20T06:50:04.646Z,97.06
2023-03-20T06:52:33.010Z,97.20
2023-03-20T06:55:02.538Z,97.29
2023-03-20T06:57:30.982Z,97.32
2023-03-20T07:00:00.197Z,97.46
2023-03-20T07:02:28.711Z,97.65
2023-03-20T07:04:57.138Z,97.78
2023-03-20T07:07:25.824Z,97.95
2023-03-20T07:09:54.186Z,97.98
2023-03-20T07:12:26.472Z,98.17
2023-03-20T07:14:55.184Z,98.29
2023-03-20T07:17:23.616Z,98.37
2023-03-20T07:19:52.703Z,98.49
2023-03-20T07:22:29.332Z,98.46
2023-03-20T07:24:58.298Z,98.38
2023-03-20T07:27:27.262Z,98.44
2023-03-20T07:29:55.720Z,98.49
2023-03-20T07:32:24.092Z,98.41
2023-03-20T07:34:52.704Z,98.35
2023-03-20T07:37:21.116Z,98.31
2023-03-20T07:39:50.074Z,98.43
2023-03-20T07:42:18.551Z,98.46
2023-03-20T07:44:47.202Z,98.40
2023-03-20T07:47:16.124Z,98.54
2023-03-20T07:49:44.505Z,98.48
2023-03-20T07:52:12.794Z,98.45
2023-03-20T07:54:41.294Z,98.47
2023-03-20T07:57:09.588Z,98.32
2023-03-20T07:59:38.045Z,98.35
2023-03-20T08:02:06.695Z,98.09
2023-03-20T08:04:35.584Z,97.74
2023-03-20T08:07:03.943Z,97.74
2023-03-20T08:09:32.536Z,97.67
2023-03-20T08:12:00.886Z,97.44
2023-03-20T08:14:29.233Z,97.17
2023-03-20T08:17:12.949Z,96.89
2023-03-20T08:19:42.888Z,96.60
2023-03-20T08:22:11.516Z,96.20
2023-03-20T08:24:39.906Z,95.96
2023-03-20T08:27:08.277Z,95.75
2023-03-20T08:29:36.791Z,95.70
2023-03-20T08:32:06.185Z,95.44
2023-03-20T08:34:35.462Z,95.38
2023-03-20T08:37:05.026Z,95.52
2023-03-20T08:39:33.631Z,95.24
2023-03-20T08:42:02.062Z,95.07
2023-03-20T08:44:30.428Z,94.76
2023-03-20T08:46:59.069Z,94.88
2023-03-20T08:49:27.908Z,94.92
2023-03-20T08:51:56.310Z,94.82
2023-03-20T08:54:25.294Z,94.76
2023-03-20T08:56:53.908Z,94.83
2023-03-20T08:59:22.340Z,94.64
2023-03-20T09:01:50.907Z,94.36
2023-03-20T09:04:19.378Z,94.61
2023-03-20T09:06:47.803Z,94.63
2023-03-20T09:09:18.625Z,94.89
2023-03-20T09:11:47.262Z,94.84
2023-03-20T09:14:16.135Z,94.81
2023-03-20T09:16:44.633Z,94.90
2023-03-20T09:19:12.956Z,94.91
2023-03-20T09:21:41.283Z,95.00
2023-03-20T09:24:09.652Z,95.08
2023-03-20T09:26:39.274Z,95.03
2023-03-20T09:29:07.649Z,95.07
2023-03-20T09:31:36.062Z,95.33
2023-03-20T09:34:04.621Z,95.40
2023-03-20T09:36:33.768Z,95.26
2023-03-20T09:39:41.100Z,95.19
2023-03-20T09:43:09.871Z,95.09
2023-03-20T09:46:16.114Z,95.15
2023-03-20T09:49:40.998Z,95.08
2023-03-20T09:52:30.376Z,95.14
2023-03-20T09:55:36.248Z,95.23
2023-03-20T09:58:21.791Z,95.12
2023-03-20T10:00:50.283Z,95.01
2023-03-20T10:03:24.784Z,94.81
2023-03-20T10:06:13.812Z,95.08
2023-03-20T10:08:43.263Z,94.89
2023-03-20T10:11:53.297Z,94.38
2023-03-20T10:14:29.522Z,94.07
2023-03-20T10:17:27.118Z,93.87
2023-03-20T10:20:11.264Z,93.71
2023-03-20T10:22:50.162Z,93.79
2023-03-20T10:25:46.198Z,93.53
2023-03-20T10:28:20.124Z,93.22
2023-03-20T10:31:07.078Z,93.08
2023-03-20T10:33:56.693Z,92.44
2023-03-20T10:36:57.230Z,92.30
2023-03-20T10:39:55.761Z,92.21
2023-03-20T10:42:37.851Z,92.20
2023-03-20T10:45:31.379Z,92.17
2023-03-20T10:48:06.656Z,92.91
2023-03-20T10:50:46.321Z,91.93
2023-03-20T10:53:41.298Z,91.27
2023-03-20T10:56:30.766Z,90.36
2023-03-20T10:59:34.410Z,88.13
2023-03-20T11:02:02.865Z,87.62
2023-03-20T11:04:31.265Z,87.27
2023-03-20T11:07:12.626Z,87.48
2023-03-20T11:09:41.769Z,86.98
2023-03-20T11:12:20.370Z,86.40
2023-03-20T11:14:48.732Z,85.28
2023-03-20T11:17:17.078Z,84.32
2023-03-20T11:19:45.678Z,83.62
2023-03-20T11:22:26.376Z,82.89
2023-03-20T11:25:01.601Z,83.08
2023-03-20T11:27:34.947Z,82.99
2023-03-20T11:30:19.925Z,83.19
2023-03-20T11:32:54.443Z,82.96
2023-03-20T11:35:25.707Z,82.24
2023-03-20T11:38:21.854Z,81.58
2023-03-20T11:40:55.025Z,80.85
2023-03-20T11:43:28.148Z,80.73
2023-03-20T11:46:04.655Z,80.50
2023-03-20T11:48:41.384Z,80.91
2023-03-20T11:51:21.935Z,80.19
2023-03-20T11:54:05.677Z,79.39
2023-03-20T11:56:35.626Z,79.41
2023-03-20T11:59:19.019Z,79.60
2023-03-20T12:01:56.678Z,79.94
2023-03-20T12:04:34.645Z,80.03
2023-03-20T12:07:32.604Z,80.46
2023-03-20T12:10:12.722Z,79.94
2023-03-20T12:12:50.165Z,78.82
2023-03-20T12:15:34.459Z,78.63
2023-03-20T12:18:22.964Z,78.89
2023-03-20T12:21:15.240Z,78.52
2023-03-20T12:24:08.074Z,78.16
2023-03-20T12:26:58.965Z,77.77
2023-03-20T12:29:36.496Z,77.28
2023-03-20T12:32:28.416Z,77.26
2023-03-20T12:35:10.838Z,77.37
2023-03-20T12:37:39.160Z,77.44
2023-03-20T12:40:17.274Z,77.87
2023-03-20T12:43:15.374Z,77.63
2023-03-20T12:46:30.520Z,77.47
2023-03-20T12:49:34.275Z,77.10
2023-03-20T12:52:48.177Z,76.79
2023-03-20T12:56:03.753Z,76.70
2023-03-20T12:59:02.202Z,76.63
2023-03-20T13:01:49.667Z,76.55
2023-03-20T13:04:57.113Z,76.92
2023-03-20T13:08:12.075Z,76.69
2023-03-20T13:11:18.430Z,76.11
2023-03-20T13:14:03.103Z,74.82
2023-03-20T13:16:55.358Z,74.47
2023-03-20T13:19:42.307Z,73.87
2023-03-20T13:22:45.576Z,73.40
2023-03-20T13:25:43.676Z,73.32
2023-03-20T13:29:12.871Z,72.82
2023-03-20T13:31:49.876Z,72.19
2023-03-20T13:34:36.453Z,72.33
2023-03-20T13:37:23.475Z,72.37
2023-03-20T13:40:11.498Z,71.69
2023-03-20T13:43:08.336Z,71.27
2023-03-20T13:45:42.318Z,71.26
2023-03-20T13:48:36.497Z,71.29
2023-03-20T13:51:44.619Z,70.59
2023-03-20T13:54:31.770Z,69.52
2023-03-20T13:57:44.139Z,69.12
2023-03-20T14:00:24.834Z,69.63
2023-03-20T14:03:14.042Z,69.30
2023-03-20T14:05:44.256Z,69.10
2023-03-20T14:08:36.886Z,69.73
2023-03-20T14:11:21.821Z,70.33
2023-03-20T14:13:57.139Z,70.05
2023-03-20T14:16:28.921Z,69.51
2023-03-20T14:19:21.270Z,68.56
2023-03-20T14:21:56.707Z,67.36
2023-03-20T14:24:28.526Z,66.79
2023-03-20T14:27:01.176Z,66.55
2023-03-20T14:29:29.459Z,66.17
2023-03-20T14:32:13.250Z,66.06
2023-03-20T14:34:52.095Z,65.82
2023-03-20T14:37:37.991Z,65.85
2023-03-20T14:40:29.055Z,66.28
2023-03-20T14:44:07.951Z,66.99
2023-03-20T14:46:42.430Z,68.19
2023-03-20T14:49:45.981Z,69.32
2023-03-20T14:52:30.474Z,70.46
2023-03-20T14:55:49.589Z,71.69
2023-03-20T14:58:53.788Z,73.22
2023-03-20T15:01:22.157Z,73.51
2023-03-20T15:04:06.896Z,71.60
2023-03-20T15:06:45.669Z,70.25
2023-03-20T15:09:15.609Z,70.58
2023-03-20T15:11:44.317Z,70.98
2023-03-20T15:14:21.786Z,71.56
2023-03-20T15:16:58.745Z,72.19
2023-03-20T15:19:27.857Z,72.21
2023-03-20T15:21:56.672Z,72.29
2023-03-20T15:24:30.068Z,72.14
2023-03-20T15:27:01.874Z,72.08
2023-03-20T15:29:33.118Z,72.07
2023-03-20T15:32:13.897Z,72.14
2023-03-20T15:34:44.203Z,72.05
2023-03-20T15:37:20.617Z,72.00
2023-03-20T15:39:55.464Z,72.39
2023-03-20T15:42:26.659Z,72.63
2023-03-20T15:44:56.845Z,72.84
2023-03-20T15:47:26.237Z,73.10
2023-03-20T15:50:00.852Z,73.30
2023-03-20T15:52:53.314Z,73.53
2023-03-20T15:55:24.803Z,73.98
2023-03-20T15:57:57.756Z,74.12
2023-03-20T16:00:42.219Z,74.17
2023-03-20T16:03:18.703Z,74.27
2023-03-20T16:05:52.059Z,74.59
2023-03-20T16:08:27.093Z,74.85
2023-03-20T16:10:59.738Z,75.24
2023-03-20T16:13:51.868Z,75.35
2023-03-20T16:16:24.636Z,75.77
2023-03-20T16:18:53.196Z,76.15
2023-03-20T16:21:29.333Z,76.12
2023-03-20T16:23:59.857Z,76.42
2023-03-20T16:26:28.651Z,76.75
2023-03-20T16:29:02.752Z,76.87
2023-03-20T16:31:35.253Z,77.11
2023-03-20T16:34:18.190Z,77.33
2023-03-20T16:36:59.400Z,77.52
2023-03-20T16:39:31.260Z,77.69
2023-03-20T16:42:22.945Z,77.90
2023-03-20T16:44:58.726Z,78.10
2023-03-20T16:47:38.323Z,78.20
2023-03-20T16:50:23.632Z,78.44
2023-03-20T16:52:58.409Z,78.73
2023-03-20T16:55:31.736Z,78.97
2023-03-20T16:58:05.962Z,79.30
2023-03-20T17:01:06.225Z,79.48
2023-03-20T17:03:40.140Z,79.78
2023-03-20T17:06:21.722Z,80.09
2023-03-20T17:08:59.767Z,80.37
2023-03-20T17:11:33.323Z,80.59
2023-03-20T17:14:04.387Z,80.71
2023-03-20T17:16:36.766Z,81.15
2023-03-20T17:19:17.321Z,81.45
2023-03-20T17:21:46.899Z,81.66
2023-03-20T17:24:17.223Z,81.96
2023-03-20T17:26:54.759Z,81.96
2023-03-20T17:29:23.171Z,82.13
2023-03-20T17:31:51.808Z,82.36
2023-03-20T17:34:20.324Z,82.51
2023-03-20T17:36:48.979Z,82.72
2023-03-20T17:39:20.266Z,82.80
2023-03-20T17:41:48.692Z,83.08
2023-03-20T17:44:17.052Z,83.06
2023-03-20T17:46:57.334Z,83.29
2023-03-20T17:49:27.680Z,83.46
2023-03-20T17:51:56.556Z,83.71
2023-03-20T17:54:25.301Z,83.90
2023-03-20T17:56:53.816Z,84.04
2023-03-20T17:59:22.243Z,84.27
2023-03-20T18:01:50.989Z,84.35
2023-03-20T18:04:19.922Z,84.77
2023-03-20T18:06:49.178Z,84.95
2023-03-20T18:09:17.808Z,84.95
2023-03-20T18:11:46.190Z,85.16
2023-03-20T18:14:18.030Z,85.45
2023-03-20T18:16:46.606Z,85.77
2023-03-20T18:19:29.270Z,85.84
2023-03-20T18:21:57.961Z,86.10
2023-03-20T18:24:27.056Z,86.38
2023-03-20T18:26:55.564Z,86.72
2023-03-20T18:29:23.870Z,86.91
2023-03-20T18:31:52.960Z,87.05
2023-03-20T18:34:21.414Z,87.28
2023-03-20T18:36:49.818Z,87.34
2023-03-20T18:39:20.797Z,87.51
2023-03-20T18:41:49.607Z,87.76
2023-03-20T18:44:18.039Z,87.86
2023-03-20T18:46:46.503Z,88.01
2023-03-20T18:49:18.038Z,88.04
2023-03-20T18:51:46.797Z,88.32
2023-03-20T18:54:15.100Z,88.38
2023-03-20T18:56:43.455Z,88.54
2023-03-20T18:59:12.978Z,88.77
2023-03-20T19:01:41.478Z,88.78
2023-03-20T19:04:10.012Z,88.81
2023-03-20T19:06:38.585Z,88.93
2023-03-20T19:09:07.762Z,89.20
2023-03-20T19:11:36.117Z,89.24
2023-03-20T19:14:04.509Z,89.36
2023-03-20T19:16:36.039Z,89.49
2023-03-20T19:19:08.108Z,89.51
2023-03-20T19:21:36.984Z,89.77
2023-03-20T19:24:07.392Z,89.86
2023-03-20T19:26:37.507Z,89.97
2023-03-20T19:29:09.206Z,90.12
2023-03-20T19:31:37.830Z,90.40
2023-03-20T19:34:06.888Z,90.44
2023-03-20T19:36:37.849Z,90.70
2023-03-20T19:39:10.912Z,90.87
2023-03-20T19:41:39.364Z,90.94
2023-03-20T19:44:08.557Z,91.11
2023-03-20T19:46:41.671Z,91.24
2023-03-20T19:49:20.295Z,91.33
2023-03-20T19:51:49.814Z,91.45
2023-03-20T19:54:18.241Z,91.47
2023-03-20T19:56:46.737Z,91.70
2023-03-20T19:59:16.835Z,91.77
2023-03-20T20:01:46.044Z,91.94
2023-03-20T20:04:15.752Z,92.06
2023-03-20T20:06:47.116Z,92.31
2023-03-20T20:09:16.341Z,92.41
2023-03-20T20:11:44.800Z,92.71
2023-03-20T20:14:14.764Z,92.94
2023-03-20T20:16:45.497Z,93.11
2023-03-20T20:19:14.639Z,93.38
2023-03-20T20:22:25.334Z,93.49
2023-03-20T20:24:34.164Z,93.81
2023-03-20T20:27:16.388Z,94.00
2023-03-20T20:29:52.608Z,94.30
2023-03-20T20:32:24.670Z,94.56
2023-03-20T20:38:27.178Z,94.76
2023-03-20T20:40:32.224Z,94.89
2023-03-20T20:43:02.437Z,94.96
2023-03-20T20:45:32.098Z,95.07
2023-03-20T20:48:02.621Z,95.20
2023-03-20T20:50:33.373Z,95.33
2023-03-20T20:53:04.134Z,95.52
2023-03-20T20:55:32.517Z,95.70
2023-03-20T20:58:01.677Z,95.91
2023-03-20T21:00:48.403Z,95.96
2023-03-20T21:03:18.502Z,96.26
2023-03-20T21:05:46.819Z,96.44
2023-03-20T21:08:16.394Z,96.56
2023-03-20T21:10:47.171Z,96.81
2023-03-20T21:13:16.157Z,97.00
2023-03-20T21:15:45.683Z,97.08
2023-03-20T21:18:14.672Z,97.14
2023-03-20T21:20:43.464Z,97.21
2023-03-20T21:23:11.832Z,97.43
2023-03-20T21:25:43.599Z,97.49
2023-03-20T21:28:14.131Z,97.64
2023-03-20T21:30:59.943Z,97.69
2023-03-20T21:33:33.691Z,97.73
2023-03-20T21:36:03.079Z,97.90
2023-03-20T21:39:06.729Z,97.91
2023-03-20T21:41:21.203Z,97.89
2023-03-20T21:43:50.653Z,98.08
2023-03-20T21:46:58.681Z,98.22
2023-03-20T21:49:58.462Z,98.29
2023-03-20T22:03:29.030Z,98.74
2023-03-20T22:20:58.854Z,99.41
2023-03-20T22:35:15.336Z,99.55
2023-03-20T22:38:21.829Z,99.69
2023-03-20T22:43:48.524Z,99.85
2023-03-20T22:46:01.740Z,99.96
2023-03-20T22:48:34.216Z,100.00
2023-03-20T22:51:02.878Z,100.00
2023-03-20T22:53:32.370Z,100.00
2023-03-20T22:56:00.838Z,100.00
2023-03-20T22:58:29.435Z,100.00
2023-03-20T23:00:57.880Z,100.00
2023-03-20T23:03:40.336Z,100.00
2023-03-20T23:06:20.005Z,100.00
2023-03-20T23:08:55.211Z,100.00
2023-03-20T23:11:27.503Z,100.00
2023-03-20T23:13:56.506Z,100.00
2023-03-20T23:16:24.875Z,100.00
2023-03-20T23:18:53.427Z,99.79
2023-03-20T23:21:21.756Z,99.54
2023-03-20T23:23:50.220Z,99.49
2023-03-20T23:26:21.023Z,99.43
2023-03-20T23:28:52.629Z,99.54
2023-03-20T23:31:25.094Z,99.54
2023-03-20T23:33:56.988Z,99.39
2023-03-20T23:36:37.276Z,99.51
2023-03-20T23:39:08.973Z,99.64
2023-03-20T23:44:25.973Z,100.00
2023-03-20T23:46:55.437Z,100.00
2023-03-20T23:49:24.515Z,100.00
2023-03-20T23:51:53.130Z,100.00
2023-03-20T23:54:21.723Z,100.00
2023-03-20T23:56:50.047Z,100.00
2023-03-20T23:59:22.171Z,100.00
